sensor_id;sensor_type;location;lat;lon;timestamp;temperature;humidity
14908;DHT22;7545;52.092;7.006;2023-08-17T00:02:12;19.20;99.90
14908;DHT22;7545;52.092;7.006;2023-08-17T00:04:38;19.10;99.90
14908;DHT22;7545;52.092;7.006;2023-08-17T00:07:04;19.10;99.90
14908;DHT22;7545;52.092;7.006;2023-08-17T00:09:30;19.10;99.90
14908;DHT22;7545;52.092;7.006;2023-08-17T00:11:55;19.10;99.90
14908;DHT22;7545;52.092;7.006;2023-08-17T00:14:21;19.10;99.90
14908;DHT22;7545;52.092;7.006;2023-08-17T00:16:48;19.10;99.90
14908;DHT22;7545;52.092;7.006;2023-08-17T00:19:14;19.10;99.90
14908;DHT22;7545;52.092;7.006;2023-08-17T00:21:39;19.10;99.90
14908;DHT22;7545;52.092;7.006;2023-08-17T00:24:05;19.00;99.90
14908;DHT22;7545;52.092;7.006;2023-08-17T00:26:31;19.10;99.90
14908;DHT22;7545;52.092;7.006;2023-08-17T00:28:56;19.10;99.90
14908;DHT22;7545;52.092;7.006;2023-08-17T00:31:22;19.00;99.90
14908;DHT22;7545;52.092;7.006;2023-08-17T00:33:47;19.00;99.90
14908;DHT22;7545;52.092;7.006;2023-08-17T00:36:13;19.00;99.90
14908;DHT22;7545;52.092;7.006;2023-08-17T00:38:38;19.00;99.90
14908;DHT22;7545;52.092;7.006;2023-08-17T00:41:04;19.00;99.90
14908;DHT22;7545;52.092;7.006;2023-08-17T00:43:30;19.00;99.90
14908;DHT22;7545;52.092;7.006;2023-08-17T00:45:55;19.00;99.90
14908;DHT22;7545;52.092;7.006;2023-08-17T00:48:21;19.00;99.90
14908;DHT22;7545;52.092;7.006;2023-08-17T00:50:48;19.00;99.90
14908;DHT22;7545;52.092;7.006;2023-08-17T00:53:15;19.10;99.90
14908;DHT22;7545;52.092;7.006;2023-08-17T00:55:42;19.10;99.90
14908;DHT22;7545;52.092;7.006;2023-08-17T00:58:08;19.10;99.90
14908;DHT22;7545;52.092;7.006;2023-08-17T01:00:33;19.10;99.90
14908;DHT22;7545;52.092;7.006;2023-08-17T01:02:59;19.00;99.90
14908;DHT22;7545;52.092;7.006;2023-08-17T01:05:25;19.00;99.90
14908;DHT22;7545;52.092;7.006;2023-08-17T01:07:50;19.00;99.90
14908;DHT22;7545;52.092;7.006;2023-08-17T01:10:16;18.90;99.90
14908;DHT22;7545;52.092;7.006;2023-08-17T01:15:34;18.90;99.90
14908;DHT22;7545;52.092;7.006;2023-08-17T01:18:29;18.90;99.90
14908;DHT22;7545;52.092;7.006;2023-08-17T01:20:57;18.90;99.90
14908;DHT22;7545;52.092;7.006;2023-08-17T01:23:23;18.90;99.90
14908;DHT22;7545;52.092;7.006;2023-08-17T01:25:48;18.90;99.90
14908;DHT22;7545;52.092;7.006;2023-08-17T01:28:15;18.80;99.90
14908;DHT22;7545;52.092;7.006;2023-08-17T01:30:55;18.90;99.90
14908;DHT22;7545;52.092;7.006;2023-08-17T01:33:37;18.80;99.90
14908;DHT22;7545;52.092;7.006;2023-08-17T01:36:10;18.80;99.90
14908;DHT22;7545;52.092;7.006;2023-08-17T01:38:37;18.80;99.90
14908;DHT22;7545;52.092;7.006;2023-08-17T01:41:04;18.80;99.90
14908;DHT22;7545;52.092;7.006;2023-08-17T01:43:30;18.70;99.90
14908;DHT22;7545;52.092;7.006;2023-08-17T01:45:56;18.70;99.90
14908;DHT22;7545;52.092;7.006;2023-08-17T01:48:22;18.70;99.90
14908;DHT22;7545;52.092;7.006;2023-08-17T01:50:47;18.70;99.90
14908;DHT22;7545;52.092;7.006;2023-08-17T01:53:13;18.70;99.90
14908;DHT22;7545;52.092;7.006;2023-08-17T01:55:39;18.80;99.90
14908;DHT22;7545;52.092;7.006;2023-08-17T01:58:04;18.80;99.90
14908;DHT22;7545;52.092;7.006;2023-08-17T02:00:30;18.80;99.90
14908;DHT22;7545;52.092;7.006;2023-08-17T02:02:55;18.70;99.90
14908;DHT22;7545;52.092;7.006;2023-08-17T02:05:21;18.70;99.90
14908;DHT22;7545;52.092;7.006;2023-08-17T02:07:47;18.70;99.90
14908;DHT22;7545;52.092;7.006;2023-08-17T02:10:12;18.70;99.90
14908;DHT22;7545;52.092;7.006;2023-08-17T02:12:38;18.70;99.90
14908;DHT22;7545;52.092;7.006;2023-08-17T02:15:04;18.70;99.90
14908;DHT22;7545;52.092;7.006;2023-08-17T02:17:29;18.70;99.90
14908;DHT22;7545;52.092;7.006;2023-08-17T02:19:55;18.70;99.90
14908;DHT22;7545;52.092;7.006;2023-08-17T02:22:21;18.70;99.90
14908;DHT22;7545;52.092;7.006;2023-08-17T02:24:46;18.80;99.90
14908;DHT22;7545;52.092;7.006;2023-08-17T02:27:12;18.80;99.90
14908;DHT22;7545;52.092;7.006;2023-08-17T02:29:37;18.80;99.90
14908;DHT22;7545;52.092;7.006;2023-08-17T02:32:04;18.80;99.90
14908;DHT22;7545;52.092;7.006;2023-08-17T02:34:30;18.80;99.90
14908;DHT22;7545;52.092;7.006;2023-08-17T02:36:55;18.90;99.90
14908;DHT22;7545;52.092;7.006;2023-08-17T02:39:21;18.90;99.90
14908;DHT22;7545;52.092;7.006;2023-08-17T02:41:47;18.90;99.90
14908;DHT22;7545;52.092;7.006;2023-08-17T02:44:14;18.80;99.90
14908;DHT22;7545;52.092;7.006;2023-08-17T02:46:40;18.80;99.90
14908;DHT22;7545;52.092;7.006;2023-08-17T02:49:06;18.80;99.90
14908;DHT22;7545;52.092;7.006;2023-08-17T02:51:31;18.80;99.90
14908;DHT22;7545;52.092;7.006;2023-08-17T02:53:57;18.80;99.90
14908;DHT22;7545;52.092;7.006;2023-08-17T02:56:22;18.70;99.90
14908;DHT22;7545;52.092;7.006;2023-08-17T02:58:48;18.70;99.90
14908;DHT22;7545;52.092;7.006;2023-08-17T03:01:13;18.60;99.90
14908;DHT22;7545;52.092;7.006;2023-08-17T03:03:39;18.60;99.90
14908;DHT22;7545;52.092;7.006;2023-08-17T03:06:05;18.50;99.90
14908;DHT22;7545;52.092;7.006;2023-08-17T03:08:31;18.50;99.90
14908;DHT22;7545;52.092;7.006;2023-08-17T03:10:56;18.50;99.90
14908;DHT22;7545;52.092;7.006;2023-08-17T03:13:22;18.40;99.90
14908;DHT22;7545;52.092;7.006;2023-08-17T03:15:47;18.30;99.90
14908;DHT22;7545;52.092;7.006;2023-08-17T03:18:13;18.30;99.90
14908;DHT22;7545;52.092;7.006;2023-08-17T03:20:39;18.30;99.90
14908;DHT22;7545;52.092;7.006;2023-08-17T03:23:04;18.20;99.90
14908;DHT22;7545;52.092;7.006;2023-08-17T03:25:34;18.20;99.90
14908;DHT22;7545;52.092;7.006;2023-08-17T03:28:00;18.20;99.90
14908;DHT22;7545;52.092;7.006;2023-08-17T03:30:26;18.10;99.90
14908;DHT22;7545;52.092;7.006;2023-08-17T03:32:51;18.10;99.90
14908;DHT22;7545;52.092;7.006;2023-08-17T03:35:17;18.10;99.90
14908;DHT22;7545;52.092;7.006;2023-08-17T03:37:43;18.10;99.90
14908;DHT22;7545;52.092;7.006;2023-08-17T03:40:09;18.10;99.90
14908;DHT22;7545;52.092;7.006;2023-08-17T03:42:34;18.00;99.90
14908;DHT22;7545;52.092;7.006;2023-08-17T03:45:00;17.90;99.90
14908;DHT22;7545;52.092;7.006;2023-08-17T03:47:25;17.90;99.90
14908;DHT22;7545;52.092;7.006;2023-08-17T03:49:52;17.90;99.90
14908;DHT22;7545;52.092;7.006;2023-08-17T03:52:17;17.90;99.90
14908;DHT22;7545;52.092;7.006;2023-08-17T03:54:43;17.90;99.90
14908;DHT22;7545;52.092;7.006;2023-08-17T03:57:09;17.90;99.90
14908;DHT22;7545;52.092;7.006;2023-08-17T03:59:34;17.90;99.90
14908;DHT22;7545;52.092;7.006;2023-08-17T04:02:00;17.90;99.90
14908;DHT22;7545;52.092;7.006;2023-08-17T04:04:25;17.90;99.90
14908;DHT22;7545;52.092;7.006;2023-08-17T04:06:51;17.90;99.90
14908;DHT22;7545;52.092;7.006;2023-08-17T04:09:17;17.80;99.90
14908;DHT22;7545;52.092;7.006;2023-08-17T04:11:42;17.80;99.90
14908;DHT22;7545;52.092;7.006;2023-08-17T04:14:08;17.80;99.90
14908;DHT22;7545;52.092;7.006;2023-08-17T04:16:34;17.80;99.90
14908;DHT22;7545;52.092;7.006;2023-08-17T04:19:00;17.90;99.90
14908;DHT22;7545;52.092;7.006;2023-08-17T04:21:25;17.90;99.90
14908;DHT22;7545;52.092;7.006;2023-08-17T04:23:51;17.90;99.90
14908;DHT22;7545;52.092;7.006;2023-08-17T04:26:17;17.90;99.90
14908;DHT22;7545;52.092;7.006;2023-08-17T04:28:42;17.90;99.90
14908;DHT22;7545;52.092;7.006;2023-08-17T04:31:08;18.00;99.90
14908;DHT22;7545;52.092;7.006;2023-08-17T04:33:33;18.00;99.90
14908;DHT22;7545;52.092;7.006;2023-08-17T04:35:59;18.00;99.90
14908;DHT22;7545;52.092;7.006;2023-08-17T04:38:26;18.00;99.90
14908;DHT22;7545;52.092;7.006;2023-08-17T04:40:52;18.00;99.90
14908;DHT22;7545;52.092;7.006;2023-08-17T04:43:17;18.00;99.90
14908;DHT22;7545;52.092;7.006;2023-08-17T04:45:43;18.10;99.90
14908;DHT22;7545;52.092;7.006;2023-08-17T04:48:09;18.10;99.90
14908;DHT22;7545;52.092;7.006;2023-08-17T04:50:35;18.10;99.90
14908;DHT22;7545;52.092;7.006;2023-08-17T04:53:01;18.00;99.90
14908;DHT22;7545;52.092;7.006;2023-08-17T04:55:26;18.00;99.90
14908;DHT22;7545;52.092;7.006;2023-08-17T04:57:52;18.00;99.90
14908;DHT22;7545;52.092;7.006;2023-08-17T05:00:17;18.10;99.90
14908;DHT22;7545;52.092;7.006;2023-08-17T05:02:45;18.00;99.90
14908;DHT22;7545;52.092;7.006;2023-08-17T05:05:11;18.00;99.90
14908;DHT22;7545;52.092;7.006;2023-08-17T05:07:36;18.00;99.90
14908;DHT22;7545;52.092;7.006;2023-08-17T05:10:02;18.10;99.90
14908;DHT22;7545;52.092;7.006;2023-08-17T05:12:28;18.00;99.90
14908;DHT22;7545;52.092;7.006;2023-08-17T05:14:53;18.00;99.90
14908;DHT22;7545;52.092;7.006;2023-08-17T05:17:19;18.00;99.90
14908;DHT22;7545;52.092;7.006;2023-08-17T05:19:45;17.90;99.90
14908;DHT22;7545;52.092;7.006;2023-08-17T05:22:12;17.90;99.90
14908;DHT22;7545;52.092;7.006;2023-08-17T05:24:39;17.90;99.90
14908;DHT22;7545;52.092;7.006;2023-08-17T05:27:08;17.90;99.90
14908;DHT22;7545;52.092;7.006;2023-08-17T05:29:37;17.90;99.90
14908;DHT22;7545;52.092;7.006;2023-08-17T05:32:02;17.90;99.90
14908;DHT22;7545;52.092;7.006;2023-08-17T05:34:28;17.90;99.90
14908;DHT22;7545;52.092;7.006;2023-08-17T05:36:54;17.90;99.90
14908;DHT22;7545;52.092;7.006;2023-08-17T05:39:19;17.90;99.90
14908;DHT22;7545;52.092;7.006;2023-08-17T05:41:45;17.90;99.90
14908;DHT22;7545;52.092;7.006;2023-08-17T05:44:11;17.90;99.90
14908;DHT22;7545;52.092;7.006;2023-08-17T05:46:36;17.90;99.90
14908;DHT22;7545;52.092;7.006;2023-08-17T05:49:02;17.90;99.90
14908;DHT22;7545;52.092;7.006;2023-08-17T05:51:28;17.90;99.90
14908;DHT22;7545;52.092;7.006;2023-08-17T05:53:54;17.90;99.90
14908;DHT22;7545;52.092;7.006;2023-08-17T05:56:19;17.80;99.90
14908;DHT22;7545;52.092;7.006;2023-08-17T05:58:45;17.80;99.90
14908;DHT22;7545;52.092;7.006;2023-08-17T06:01:11;17.90;99.90
14908;DHT22;7545;52.092;7.006;2023-08-17T06:03:37;17.90;99.90
14908;DHT22;7545;52.092;7.006;2023-08-17T06:06:03;17.90;99.90
14908;DHT22;7545;52.092;7.006;2023-08-17T06:08:29;17.90;99.90
14908;DHT22;7545;52.092;7.006;2023-08-17T06:10:55;17.90;99.90
14908;DHT22;7545;52.092;7.006;2023-08-17T06:13:21;18.00;99.90
14908;DHT22;7545;52.092;7.006;2023-08-17T06:15:46;18.00;99.90
14908;DHT22;7545;52.092;7.006;2023-08-17T06:18:12;18.10;99.90
14908;DHT22;7545;52.092;7.006;2023-08-17T06:20:37;18.10;99.90
14908;DHT22;7545;52.092;7.006;2023-08-17T06:23:03;18.10;99.90
14908;DHT22;7545;52.092;7.006;2023-08-17T06:25:29;18.20;99.90
14908;DHT22;7545;52.092;7.006;2023-08-17T06:27:55;18.20;99.90
14908;DHT22;7545;52.092;7.006;2023-08-17T06:30:21;18.20;99.90
14908;DHT22;7545;52.092;7.006;2023-08-17T06:32:46;18.20;99.90
14908;DHT22;7545;52.092;7.006;2023-08-17T06:35:12;18.20;99.90
14908;DHT22;7545;52.092;7.006;2023-08-17T06:37:38;18.20;99.90
14908;DHT22;7545;52.092;7.006;2023-08-17T06:40:04;18.20;99.90
14908;DHT22;7545;52.092;7.006;2023-08-17T06:42:30;18.30;99.90
14908;DHT22;7545;52.092;7.006;2023-08-17T06:44:56;18.30;99.90
14908;DHT22;7545;52.092;7.006;2023-08-17T06:47:22;18.40;99.90
14908;DHT22;7545;52.092;7.006;2023-08-17T06:49:48;18.40;99.90
14908;DHT22;7545;52.092;7.006;2023-08-17T06:52:13;18.40;99.90
14908;DHT22;7545;52.092;7.006;2023-08-17T06:54:39;18.40;99.90
14908;DHT22;7545;52.092;7.006;2023-08-17T06:57:05;18.50;99.90
14908;DHT22;7545;52.092;7.006;2023-08-17T06:59:31;18.40;99.90
14908;DHT22;7545;52.092;7.006;2023-08-17T07:01:58;18.50;99.90
14908;DHT22;7545;52.092;7.006;2023-08-17T07:04:25;18.50;99.90
14908;DHT22;7545;52.092;7.006;2023-08-17T07:06:50;18.60;99.90
14908;DHT22;7545;52.092;7.006;2023-08-17T07:09:16;18.60;99.90
14908;DHT22;7545;52.092;7.006;2023-08-17T07:11:42;18.60;99.90
14908;DHT22;7545;52.092;7.006;2023-08-17T07:14:07;18.60;99.90
14908;DHT22;7545;52.092;7.006;2023-08-17T07:16:33;18.60;99.90
14908;DHT22;7545;52.092;7.006;2023-08-17T07:18:59;18.70;99.90
14908;DHT22;7545;52.092;7.006;2023-08-17T07:21:25;18.60;99.90
14908;DHT22;7545;52.092;7.006;2023-08-17T07:23:51;18.60;99.90
14908;DHT22;7545;52.092;7.006;2023-08-17T07:26:17;18.60;99.90
14908;DHT22;7545;52.092;7.006;2023-08-17T07:28:46;18.70;99.90
14908;DHT22;7545;52.092;7.006;2023-08-17T07:31:12;18.70;99.90
14908;DHT22;7545;52.092;7.006;2023-08-17T07:33:38;18.70;99.90
14908;DHT22;7545;52.092;7.006;2023-08-17T07:36:04;18.70;99.90
14908;DHT22;7545;52.092;7.006;2023-08-17T07:38:30;18.70;99.90
14908;DHT22;7545;52.092;7.006;2023-08-17T07:40:55;18.70;99.90
14908;DHT22;7545;52.092;7.006;2023-08-17T07:43:21;18.80;99.90
14908;DHT22;7545;52.092;7.006;2023-08-17T07:45:56;18.70;99.90
14908;DHT22;7545;52.092;7.006;2023-08-17T07:48:22;18.70;99.90
14908;DHT22;7545;52.092;7.006;2023-08-17T07:50:51;18.70;99.90
14908;DHT22;7545;52.092;7.006;2023-08-17T07:53:21;18.70;99.90
14908;DHT22;7545;52.092;7.006;2023-08-17T07:55:46;18.80;99.90
14908;DHT22;7545;52.092;7.006;2023-08-17T07:58:12;18.70;99.90
14908;DHT22;7545;52.092;7.006;2023-08-17T08:00:37;18.80;99.90
14908;DHT22;7545;52.092;7.006;2023-08-17T08:03:03;18.80;99.90
14908;DHT22;7545;52.092;7.006;2023-08-17T08:05:29;18.80;99.90
14908;DHT22;7545;52.092;7.006;2023-08-17T08:07:55;18.80;99.90
14908;DHT22;7545;52.092;7.006;2023-08-17T08:10:20;18.80;99.90
14908;DHT22;7545;52.092;7.006;2023-08-17T08:12:46;18.90;99.90
14908;DHT22;7545;52.092;7.006;2023-08-17T08:15:11;18.80;99.90
14908;DHT22;7545;52.092;7.006;2023-08-17T08:17:37;18.80;99.90
14908;DHT22;7545;52.092;7.006;2023-08-17T08:20:03;18.90;99.90
14908;DHT22;7545;52.092;7.006;2023-08-17T08:22:29;18.90;99.90
14908;DHT22;7545;52.092;7.006;2023-08-17T08:24:55;18.90;99.90
14908;DHT22;7545;52.092;7.006;2023-08-17T08:27:20;18.90;99.90
14908;DHT22;7545;52.092;7.006;2023-08-17T08:29:46;18.90;99.90
14908;DHT22;7545;52.092;7.006;2023-08-17T08:32:12;18.90;99.90
14908;DHT22;7545;52.092;7.006;2023-08-17T08:34:38;18.90;99.90
14908;DHT22;7545;52.092;7.006;2023-08-17T08:37:06;18.90;99.90
14908;DHT22;7545;52.092;7.006;2023-08-17T08:39:32;18.90;99.90
14908;DHT22;7545;52.092;7.006;2023-08-17T08:41:58;18.90;99.90
14908;DHT22;7545;52.092;7.006;2023-08-17T08:44:24;18.80;99.90
14908;DHT22;7545;52.092;7.006;2023-08-17T08:46:50;18.90;99.90
14908;DHT22;7545;52.092;7.006;2023-08-17T08:49:23;18.80;99.90
14908;DHT22;7545;52.092;7.006;2023-08-17T08:51:50;18.80;99.90
14908;DHT22;7545;52.092;7.006;2023-08-17T08:54:21;18.80;99.90
14908;DHT22;7545;52.092;7.006;2023-08-17T08:57:03;18.80;99.90
14908;DHT22;7545;52.092;7.006;2023-08-17T08:59:31;18.70;99.90
14908;DHT22;7545;52.092;7.006;2023-08-17T09:01:58;18.80;99.90
14908;DHT22;7545;52.092;7.006;2023-08-17T09:04:24;18.70;99.90
14908;DHT22;7545;52.092;7.006;2023-08-17T09:06:50;18.80;99.90
14908;DHT22;7545;52.092;7.006;2023-08-17T09:09:17;18.70;99.90
14908;DHT22;7545;52.092;7.006;2023-08-17T09:11:43;18.80;99.90
14908;DHT22;7545;52.092;7.006;2023-08-17T09:14:09;18.70;99.90
14908;DHT22;7545;52.092;7.006;2023-08-17T09:16:34;18.70;99.90
14908;DHT22;7545;52.092;7.006;2023-08-17T09:19:01;18.70;99.90
14908;DHT22;7545;52.092;7.006;2023-08-17T09:21:31;18.70;99.90
14908;DHT22;7545;52.092;7.006;2023-08-17T09:23:57;18.70;99.90
14908;DHT22;7545;52.092;7.006;2023-08-17T09:26:23;18.70;99.90
14908;DHT22;7545;52.092;7.006;2023-08-17T09:28:50;18.70;99.90
14908;DHT22;7545;52.092;7.006;2023-08-17T09:31:16;18.70;99.90
14908;DHT22;7545;52.092;7.006;2023-08-17T09:33:49;18.60;99.90
14908;DHT22;7545;52.092;7.006;2023-08-17T09:36:15;18.70;99.90
14908;DHT22;7545;52.092;7.006;2023-08-17T09:38:41;18.70;99.90
14908;DHT22;7545;52.092;7.006;2023-08-17T09:41:06;18.80;99.90
14908;DHT22;7545;52.092;7.006;2023-08-17T09:43:32;18.80;99.90
14908;DHT22;7545;52.092;7.006;2023-08-17T09:45:59;18.80;99.90
14908;DHT22;7545;52.092;7.006;2023-08-17T09:48:27;18.80;99.90
14908;DHT22;7545;52.092;7.006;2023-08-17T09:50:56;18.80;99.90
14908;DHT22;7545;52.092;7.006;2023-08-17T09:53:23;18.90;99.90
14908;DHT22;7545;52.092;7.006;2023-08-17T09:55:49;18.80;99.90
14908;DHT22;7545;52.092;7.006;2023-08-17T09:58:16;18.80;99.90
14908;DHT22;7545;52.092;7.006;2023-08-17T10:00:44;18.90;99.90
14908;DHT22;7545;52.092;7.006;2023-08-17T10:03:13;18.90;99.90
14908;DHT22;7545;52.092;7.006;2023-08-17T10:05:40;18.90;99.90
14908;DHT22;7545;52.092;7.006;2023-08-17T10:08:07;19.00;99.90
14908;DHT22;7545;52.092;7.006;2023-08-17T10:10:40;19.00;99.90
14908;DHT22;7545;52.092;7.006;2023-08-17T10:13:26;19.10;99.90
14908;DHT22;7545;52.092;7.006;2023-08-17T10:21:46;19.20;99.90
14908;DHT22;7545;52.092;7.006;2023-08-17T10:24:14;19.20;99.90
14908;DHT22;7545;52.092;7.006;2023-08-17T10:26:40;19.20;99.90
14908;DHT22;7545;52.092;7.006;2023-08-17T10:29:06;19.30;99.90
14908;DHT22;7545;52.092;7.006;2023-08-17T10:31:34;19.30;99.90
14908;DHT22;7545;52.092;7.006;2023-08-17T10:34:01;19.30;99.90
14908;DHT22;7545;52.092;7.006;2023-08-17T10:36:28;19.30;99.90
14908;DHT22;7545;52.092;7.006;2023-08-17T10:39:23;19.40;99.90
14908;DHT22;7545;52.092;7.006;2023-08-17T10:41:50;19.40;99.90
14908;DHT22;7545;52.092;7.006;2023-08-17T10:44:18;19.30;99.90
14908;DHT22;7545;52.092;7.006;2023-08-17T10:46:43;19.40;99.90
14908;DHT22;7545;52.092;7.006;2023-08-17T10:49:26;19.50;99.90
14908;DHT22;7545;52.092;7.006;2023-08-17T10:52:07;19.50;99.90
14908;DHT22;7545;52.092;7.006;2023-08-17T10:54:37;19.50;99.90
14908;DHT22;7545;52.092;7.006;2023-08-17T10:57:29;19.50;99.90
14908;DHT22;7545;52.092;7.006;2023-08-17T11:02:44;19.50;99.90
14908;DHT22;7545;52.092;7.006;2023-08-17T11:05:10;19.50;99.90
14908;DHT22;7545;52.092;7.006;2023-08-17T11:07:42;19.50;99.90
14908;DHT22;7545;52.092;7.006;2023-08-17T11:10:27;19.50;99.90
14908;DHT22;7545;52.092;7.006;2023-08-17T11:12:54;19.50;99.90
14908;DHT22;7545;52.092;7.006;2023-08-17T11:15:26;19.50;99.90
14908;DHT22;7545;52.092;7.006;2023-08-17T11:17:52;19.60;99.90
14908;DHT22;7545;52.092;7.006;2023-08-17T11:20:18;19.60;99.90
14908;DHT22;7545;52.092;7.006;2023-08-17T11:22:44;19.50;99.90
14908;DHT22;7545;52.092;7.006;2023-08-17T11:25:10;19.50;99.90
14908;DHT22;7545;52.092;7.006;2023-08-17T11:27:36;19.60;99.90
14908;DHT22;7545;52.092;7.006;2023-08-17T11:30:02;19.50;99.90
14908;DHT22;7545;52.092;7.006;2023-08-17T11:32:29;19.60;99.90
14908;DHT22;7545;52.092;7.006;2023-08-17T11:34:55;19.60;99.90
14908;DHT22;7545;52.092;7.006;2023-08-17T11:37:21;19.60;99.90
14908;DHT22;7545;52.092;7.006;2023-08-17T11:39:47;19.60;99.90
14908;DHT22;7545;52.092;7.006;2023-08-17T11:42:13;19.60;99.90
14908;DHT22;7545;52.092;7.006;2023-08-17T11:44:38;19.50;99.90
14908;DHT22;7545;52.092;7.006;2023-08-17T11:47:05;19.60;99.90
14908;DHT22;7545;52.092;7.006;2023-08-17T11:49:32;19.60;99.90
14908;DHT22;7545;52.092;7.006;2023-08-17T11:51:57;19.60;99.90
14908;DHT22;7545;52.092;7.006;2023-08-17T11:54:23;19.60;99.90
14908;DHT22;7545;52.092;7.006;2023-08-17T11:56:48;19.60;99.90
14908;DHT22;7545;52.092;7.006;2023-08-17T11:59:14;19.60;99.90
14908;DHT22;7545;52.092;7.006;2023-08-17T12:01:43;19.60;99.90
14908;DHT22;7545;52.092;7.006;2023-08-17T12:04:09;19.60;99.90
14908;DHT22;7545;52.092;7.006;2023-08-17T12:06:40;19.60;99.90
14908;DHT22;7545;52.092;7.006;2023-08-17T12:09:07;19.60;99.90
14908;DHT22;7545;52.092;7.006;2023-08-17T12:11:33;19.60;99.90
14908;DHT22;7545;52.092;7.006;2023-08-17T12:13:59;19.60;99.90
14908;DHT22;7545;52.092;7.006;2023-08-17T12:16:25;19.60;99.90
14908;DHT22;7545;52.092;7.006;2023-08-17T12:18:51;19.70;99.90
14908;DHT22;7545;52.092;7.006;2023-08-17T12:21:23;19.60;99.90
14908;DHT22;7545;52.092;7.006;2023-08-17T12:23:49;19.70;99.90
14908;DHT22;7545;52.092;7.006;2023-08-17T12:26:24;19.70;99.90
14908;DHT22;7545;52.092;7.006;2023-08-17T12:28:50;19.70;99.90
14908;DHT22;7545;52.092;7.006;2023-08-17T12:31:21;19.70;99.90
14908;DHT22;7545;52.092;7.006;2023-08-17T12:33:47;19.70;99.90
14908;DHT22;7545;52.092;7.006;2023-08-17T12:36:12;19.80;99.90
14908;DHT22;7545;52.092;7.006;2023-08-17T12:38:38;19.80;99.90
14908;DHT22;7545;52.092;7.006;2023-08-17T12:41:10;19.80;99.90
14908;DHT22;7545;52.092;7.006;2023-08-17T12:43:36;19.80;99.90
14908;DHT22;7545;52.092;7.006;2023-08-17T12:46:02;19.70;99.90
14908;DHT22;7545;52.092;7.006;2023-08-17T12:48:28;19.70;99.90
14908;DHT22;7545;52.092;7.006;2023-08-17T12:50:53;19.70;99.90
14908;DHT22;7545;52.092;7.006;2023-08-17T12:53:19;19.70;99.90
14908;DHT22;7545;52.092;7.006;2023-08-17T12:55:45;19.70;99.90
14908;DHT22;7545;52.092;7.006;2023-08-17T12:58:10;19.70;99.90
14908;DHT22;7545;52.092;7.006;2023-08-17T13:00:36;19.70;99.90
14908;DHT22;7545;52.092;7.006;2023-08-17T13:03:02;19.70;99.90
14908;DHT22;7545;52.092;7.006;2023-08-17T13:05:27;19.70;99.90
14908;DHT22;7545;52.092;7.006;2023-08-17T13:07:53;19.70;99.90
14908;DHT22;7545;52.092;7.006;2023-08-17T13:10:19;19.80;99.90
14908;DHT22;7545;52.092;7.006;2023-08-17T13:12:44;19.80;99.90
14908;DHT22;7545;52.092;7.006;2023-08-17T13:15:12;19.80;99.90
14908;DHT22;7545;52.092;7.006;2023-08-17T13:17:38;19.80;99.90
14908;DHT22;7545;52.092;7.006;2023-08-17T13:20:04;19.80;99.90
14908;DHT22;7545;52.092;7.006;2023-08-17T13:22:31;19.80;99.90
14908;DHT22;7545;52.092;7.006;2023-08-17T13:24:57;19.80;99.90
14908;DHT22;7545;52.092;7.006;2023-08-17T13:27:23;19.80;99.90
14908;DHT22;7545;52.092;7.006;2023-08-17T13:29:48;19.80;99.90
14908;DHT22;7545;52.092;7.006;2023-08-17T13:32:14;19.80;99.90
14908;DHT22;7545;52.092;7.006;2023-08-17T13:34:40;19.80;99.90
14908;DHT22;7545;52.092;7.006;2023-08-17T13:37:05;19.80;99.90
14908;DHT22;7545;52.092;7.006;2023-08-17T13:39:31;19.80;99.90
14908;DHT22;7545;52.092;7.006;2023-08-17T13:41:57;19.80;99.90
14908;DHT22;7545;52.092;7.006;2023-08-17T13:44:23;19.90;99.90
14908;DHT22;7545;52.092;7.006;2023-08-17T13:46:49;19.90;99.90
14908;DHT22;7545;52.092;7.006;2023-08-17T13:49:14;19.90;99.90
14908;DHT22;7545;52.092;7.006;2023-08-17T13:51:40;19.90;99.90
14908;DHT22;7545;52.092;7.006;2023-08-17T13:54:06;19.90;99.90
14908;DHT22;7545;52.092;7.006;2023-08-17T13:56:31;19.90;99.90
14908;DHT22;7545;52.092;7.006;2023-08-17T13:58:57;19.90;99.90
14908;DHT22;7545;52.092;7.006;2023-08-17T14:01:23;19.90;99.90
14908;DHT22;7545;52.092;7.006;2023-08-17T14:03:48;19.90;99.90
14908;DHT22;7545;52.092;7.006;2023-08-17T14:06:14;19.90;99.90
14908;DHT22;7545;52.092;7.006;2023-08-17T14:08:41;19.90;99.90
14908;DHT22;7545;52.092;7.006;2023-08-17T14:11:06;19.90;99.90
14908;DHT22;7545;52.092;7.006;2023-08-17T14:13:32;19.90;99.90
14908;DHT22;7545;52.092;7.006;2023-08-17T14:15:59;19.90;99.90
14908;DHT22;7545;52.092;7.006;2023-08-17T14:18:25;19.90;99.90
14908;DHT22;7545;52.092;7.006;2023-08-17T14:20:51;20.00;99.90
14908;DHT22;7545;52.092;7.006;2023-08-17T14:23:17;20.00;99.90
14908;DHT22;7545;52.092;7.006;2023-08-17T14:25:42;20.00;99.90
14908;DHT22;7545;52.092;7.006;2023-08-17T14:28:08;20.00;99.90
14908;DHT22;7545;52.092;7.006;2023-08-17T14:30:34;20.00;99.90
14908;DHT22;7545;52.092;7.006;2023-08-17T14:32:59;20.00;99.90
14908;DHT22;7545;52.092;7.006;2023-08-17T14:35:26;20.00;99.90
14908;DHT22;7545;52.092;7.006;2023-08-17T14:37:52;20.00;99.90
14908;DHT22;7545;52.092;7.006;2023-08-17T14:40:18;20.00;99.90
14908;DHT22;7545;52.092;7.006;2023-08-17T14:42:43;20.00;99.90
14908;DHT22;7545;52.092;7.006;2023-08-17T14:45:10;20.00;99.90
14908;DHT22;7545;52.092;7.006;2023-08-17T14:47:36;20.00;99.90
14908;DHT22;7545;52.092;7.006;2023-08-17T14:50:02;20.00;99.90
14908;DHT22;7545;52.092;7.006;2023-08-17T14:52:28;20.00;99.90
14908;DHT22;7545;52.092;7.006;2023-08-17T14:54:54;20.00;99.90
14908;DHT22;7545;52.092;7.006;2023-08-17T14:57:20;20.00;99.90
14908;DHT22;7545;52.092;7.006;2023-08-17T14:59:49;20.00;99.90
14908;DHT22;7545;52.092;7.006;2023-08-17T15:02:14;20.10;99.90
14908;DHT22;7545;52.092;7.006;2023-08-17T15:04:42;20.10;99.90
14908;DHT22;7545;52.092;7.006;2023-08-17T15:07:07;20.10;99.90
14908;DHT22;7545;52.092;7.006;2023-08-17T15:09:37;20.10;99.90
14908;DHT22;7545;52.092;7.006;2023-08-17T15:12:03;20.10;99.90
14908;DHT22;7545;52.092;7.006;2023-08-17T15:14:29;20.10;99.90
14908;DHT22;7545;52.092;7.006;2023-08-17T15:16:54;20.10;99.90
14908;DHT22;7545;52.092;7.006;2023-08-17T15:19:20;20.10;99.90
14908;DHT22;7545;52.092;7.006;2023-08-17T15:21:46;20.10;99.90
14908;DHT22;7545;52.092;7.006;2023-08-17T15:24:11;20.10;99.90
14908;DHT22;7545;52.092;7.006;2023-08-17T15:26:37;20.10;99.90
14908;DHT22;7545;52.092;7.006;2023-08-17T15:29:03;20.10;99.90
14908;DHT22;7545;52.092;7.006;2023-08-17T15:31:28;20.10;99.90
14908;DHT22;7545;52.092;7.006;2023-08-17T15:33:54;20.10;99.90
14908;DHT22;7545;52.092;7.006;2023-08-17T15:36:20;20.10;99.90
14908;DHT22;7545;52.092;7.006;2023-08-17T15:38:50;20.10;99.90
14908;DHT22;7545;52.092;7.006;2023-08-17T15:41:17;20.10;99.90
14908;DHT22;7545;52.092;7.006;2023-08-17T15:43:43;20.10;99.90
14908;DHT22;7545;52.092;7.006;2023-08-17T15:46:09;20.20;99.90
14908;DHT22;7545;52.092;7.006;2023-08-17T15:48:35;20.10;99.90
14908;DHT22;7545;52.092;7.006;2023-08-17T15:51:01;20.10;99.90
14908;DHT22;7545;52.092;7.006;2023-08-17T15:53:26;20.10;99.90